D/T METAR WX W/DIR W/SPE G/SPE TEMP DEWP
1/04/19 13:50 EGDX 011250Z AUTO 10008KT 9999 NCD 11/05 Q1019 E (100°) 9.2mph 11°C 5°C
1/04/19 12:50 EGDX 011150Z AUTO 09008KT 9999 NCD 10/04 Q1020 E (90°) 9.2mph 10°C 4°C
1/04/19 11:50 EGDX 011050Z AUTO 08010KT 9999 NCD 10/04 Q1020 E (80°) 11.5mph 10°C 4°C
1/04/19 10:50 EGDX 010950Z AUTO 08010KT 9999 NCD 08/04 Q1021 E (80°) 11.5mph 8°C 4°C
1/04/19 09:50 EGDX 010850Z AUTO 08012KT 9999 NCD 07/04 Q1021 E (80°) 13.8mph 7°C 4°C
1/04/19 08:50 EGDX 010750Z AUTO 07013KT 9999 FEW009/// SCT060/// 05/03 Q1022 ENE (70°) 15.0mph 5°C 3°C
1/04/19 07:50 EGDX 010650Z AUTO 07011KT 9999 FEW009/// BKN060/// 04/02 Q1022 ENE (70°) 12.7mph 4°C 2°C
1/04/19 06:50 EGDX 010550Z AUTO 07011KT 9999 BKN060/// 03/02 Q1022 ENE (70°) 12.7mph 3°C 2°C
1/04/19 05:50 EGDX 010450Z AUTO 07012KT 9999 FEW070/// 04/02 Q1022 ENE (70°) 13.8mph 4°C 2°C
1/04/19 04:50 EGDX 010350Z AUTO 07009KT 9999 NCD 04/01 Q1023 ENE (70°) 10.4mph 4°C 1°C
1/04/19 03:50 EGDX 010250Z AUTO 07011KT 9999 NCD 04/01 Q1023 ENE (70°) 12.7mph 4°C 1°C
1/04/19 02:50 EGDX 010150Z AUTO 07011KT 9999 NCD 05/02 Q1023 ENE (70°) 12.7mph 5°C 2°C
1/04/19 01:50 EGDX 010050Z AUTO 07011KT 9999 NCD 05/02 Q1024 ENE (70°) 12.7mph 5°C 2°C
1/04/19 00:50 EGDX 312350Z AUTO 07008KT 9999 NCD 06/02 Q1024 ENE (70°) 9.2mph 6°C 2°C
31/03/19 23:50 EGDX 312250Z AUTO 07011KT 9999 NCD 07/03 Q1024 ENE (70°) 12.7mph 7°C 3°C
31/03/19 22:50 EGDX 312150Z AUTO 07010KT 9999 NCD 08/03 Q1024 ENE (70°) 11.5mph 8°C 3°C
31/03/19 21:50 EGDX 312050Z AUTO 08012KT 9999 NCD 09/04 Q1024 E (80°) 13.8mph 9°C 4°C
31/03/19 20:50 EGDX 311950Z AUTO 07011KT 9999 FEW034/// 09/04 Q1023 ENE (70°) 12.7mph 9°C 4°C
31/03/19 19:50 EGDX 311850Z AUTO 07011KT 9999 OVC031/// 11/05 Q1023 ENE (70°) 12.7mph 11°C 5°C
31/03/19 18:50 EGDX 311750Z AUTO 07010KT 9999 OVC029/// 11/05 Q1023 ENE (70°) 11.5mph 11°C 5°C
31/03/19 17:50 EGDX 311650Z AUTO 07011KT 9999 OVC028/// 11/06 Q1023 ENE (70°) 12.7mph 11°C 6°C
31/03/19 16:50 EGDX 311550Z AUTO 08014KT 9999 OVC025/// 11/06 Q1023 E (80°) 16.1mph 11°C 6°C
31/03/19 15:50 EGDX 311450Z 07015KT 9999 OVC021 11/06 Q1024 WHT ENE (70°) 17.3mph 11°C 6°C
31/03/19 14:50 EGDX 311350Z 08015KT 9999 OVC019 10/06 Q1024 WHT E (80°) 17.3mph 10°C 6°C
31/03/19 13:50 EGDX 311250Z 08015KT 9999 OVC017 10/06 Q1024 WHT E (80°) 17.3mph 10°C 6°C
31/03/19 12:50 EGDX 311150Z 07016KT 9000 HZ OVC016 10/06 Q1024 WHT HZ ENE (70°) 18.4mph 10°C 6°C
31/03/19 11:50 EGDX 311050Z 07016KT 8000 HZ OVC016 10/07 Q1024 WHT HZ ENE (70°) 18.4mph 10°C 7°C
31/03/19 10:50 EGDX 310950Z 08013KT 8000 HZ OVC015 09/06 Q1024 WHT HZ E (80°) 15.0mph 9°C 6°C
31/03/19 09:50 EGDX 310850Z 07012KT 7000 HZ OVC013 08/06 Q1024 GRN HZ ENE (70°) 13.8mph 8°C 6°C
31/03/19 08:50 EGDX 310750Z 06013KT 5000 HZ BKN012 OVC050 08/06 Q1024 GRN HZ ENE (60°) 15.0mph 8°C 6°C
31/03/19 07:50 EGDX 310650Z AUTO 06014KT 4000 HZ OVC050/// 07/05 Q1023 HZ ENE (60°) 16.1mph 7°C 5°C
31/03/19 06:50 EGDX 310550Z AUTO 10003KT 8000 HZ OVC047/// 06/04 Q1023 HZ E (100°) 3.5mph 6°C 4°C
31/03/19 05:50 EGDX 310450Z AUTO 07002KT 9999 BKN045/// 06/03 Q1022 ENE (70°) 2.3mph 6°C 3°C
31/03/19 04:50 EGDX 310350Z AUTO 17001KT 9999 FEW046/// 05/03 Q1022 S (170°) 1.2mph 5°C 3°C
31/03/19 03:50 EGDX 310250Z AUTO 35002KT 9999 BKN046/// 05/02 Q1022 N (350°) 2.3mph 5°C 2°C
31/03/19 02:50 EGDX 310150Z AUTO 35002KT 9999 NCD 06/04 Q1022 N (350°) 2.3mph 6°C 4°C
31/03/19 00:50 EGDX 310050Z AUTO 01001KT 8000 HZ NCD 06/04 Q1022 HZ N (10°) 1.2mph 6°C 4°C
30/03/19 23:50 EGDX 302350Z AUTO 07002KT 8000 HZ NCD 06/04 Q1022 HZ ENE (70°) 2.3mph 6°C 4°C
30/03/19 22:50 EGDX 302250Z AUTO 03002KT 9999 FEW037/// 07/05 Q1022 NNE (30°) 2.3mph 7°C 5°C
30/03/19 21:50 EGDX 302150Z AUTO 06001KT 9999 BKN037/// 07/06 Q1022 ENE (60°) 1.2mph 7°C 6°C
30/03/19 20:50 EGDX 302050Z AUTO 34003KT 9999 FEW037/// 07/06 Q1022 NNW (340°) 3.5mph 7°C 6°C
30/03/19 19:50 EGDX 301950Z AUTO 29005KT 9999 NCD 08/06 Q1021 WNW (290°) 5.8mph 8°C 6°C
30/03/19 18:50 EGDX 301850Z AUTO 27005KT 9999 NCD 08/06 Q1021 W (270°) 5.8mph 8°C 6°C
30/03/19 17:50 EGDX 301750Z AUTO 28009KT 9999 NCD 10/06 Q1020 W (280°) 10.4mph 10°C 6°C
30/03/19 16:50 EGDX 301650Z AUTO 27007KT 9999 NCD 11/07 Q1020 W (270°) 8.1mph 11°C 7°C
30/03/19 15:50 EGDX 301550Z 27008KT CAVOK 11/06 Q1020 BLU W (270°) 9.2mph 11°C 6°C
30/03/19 14:50 EGDX 301450Z 28008KT CAVOK 11/06 Q1020 BLU W (280°) 9.2mph 11°C 6°C
30/03/19 13:50 EGDX 301350Z 25009KT CAVOK 11/06 Q1021 BLU WSW (250°) 10.4mph 11°C 6°C